ANA373 RJGG-RJFU
Flight info
| Callsign | ANA373 |
|---|---|
| Flight time | 1h 13m |
| Altitude | 32000 |
| Route | HIKNE Y207 ARASI Y20 KAMMY Y204 OHGIE |
| Aircraft | B738/M-SDE2E3FGHIRWXY/LB1 |
Departure
| Time | 2026-04-23 09:44 |
|---|---|
| Airport | Chubu Centrair International Airport (RJGG) |
Arrival
| Time | 2026-04-23 10:58 |
|---|---|
| Airport | Nagasaki Airport (RJFU) |
| Time | Latitude | Longitude | Altitude | Speed | Heading |
|---|---|---|---|---|---|
| 2026-04-23 09:05 | 34.85760 | 136.81024 | 8 ft | 0 kts | 9° |
| 2026-04-23 09:34 | 34.85754 | 136.81024 | 8 ft | 2 kts | 9° |
| 2026-04-23 09:35 | 34.85739 | 136.81021 | 8 ft | 2 kts | 9° |
| 2026-04-23 09:35 | 34.85724 | 136.81018 | 8 ft | 2 kts | 9° |
| 2026-04-23 09:35 | 34.85709 | 136.81015 | 8 ft | 2 kts | 9° |
| 2026-04-23 09:35 | 34.85695 | 136.81012 | 8 ft | 1 kts | 9° |
| 2026-04-23 09:36 | 34.85685 | 136.81010 | 8 ft | 2 kts | 354° |
| 2026-04-23 09:36 | 34.85671 | 136.81018 | 8 ft | 2 kts | 316° |
| 2026-04-23 09:36 | 34.85664 | 136.81033 | 8 ft | 2 kts | 280° |
| 2026-04-23 09:36 | 34.85663 | 136.81044 | 8 ft | 1 kts | 259° |
| 2026-04-23 09:37 | 34.85665 | 136.81052 | 8 ft | 0 kts | 258° |
| 2026-04-23 09:39 | 34.85662 | 136.81038 | 8 ft | 5 kts | 258° |
| 2026-04-23 09:39 | 34.85642 | 136.80963 | 8 ft | 10 kts | 223° |
| 2026-04-23 09:39 | 34.85578 | 136.80931 | 8 ft | 9 kts | 226° |
| 2026-04-23 09:39 | 34.85538 | 136.80868 | 8 ft | 10 kts | 200° |
| 2026-04-23 09:40 | 34.85448 | 136.80879 | 8 ft | 15 kts | 168° |
| 2026-04-23 09:40 | 34.85321 | 136.80910 | 8 ft | 20 kts | 168° |
| 2026-04-23 09:40 | 34.85162 | 136.80946 | 8 ft | 25 kts | 170° |
| 2026-04-23 09:40 | 34.84987 | 136.80989 | 8 ft | 25 kts | 169° |
| 2026-04-23 09:41 | 34.84814 | 136.81030 | 8 ft | 25 kts | 168° |
| 2026-04-23 09:41 | 34.84642 | 136.81073 | 8 ft | 24 kts | 168° |
| 2026-04-23 09:41 | 34.84478 | 136.81113 | 8 ft | 18 kts | 168° |
| 2026-04-23 09:41 | 34.84426 | 136.81068 | 8 ft | 4 kts | 257° |
| 2026-04-23 09:42 | 34.84425 | 136.81062 | 8 ft | 0 kts | 257° |
| 2026-04-23 09:42 | 34.84424 | 136.81058 | 8 ft | 3 kts | 257° |
| 2026-04-23 09:42 | 34.84414 | 136.81004 | 8 ft | 8 kts | 258° |
| 2026-04-23 09:43 | 34.84403 | 136.80936 | 8 ft | 7 kts | 259° |
| 2026-04-23 09:43 | 34.84414 | 136.80885 | 8 ft | 5 kts | 337° |
| 2026-04-23 09:43 | 34.84465 | 136.80870 | 8 ft | 12 kts | 348° |
| 2026-04-23 09:43 | 34.84767 | 136.80798 | 8 ft | 77 kts | 350° |
| 2026-04-23 09:44 | 34.85503 | 136.80620 | 8 ft | 134 kts | 349° |
| 2026-04-23 09:44 | 34.86558 | 136.80364 | 219 ft | 162 kts | 349° |
| 2026-04-23 09:44 | 34.87605 | 136.80043 | 948 ft | 160 kts | 345° |
| 2026-04-23 09:44 | 34.88694 | 136.79552 | 1429 ft | 173 kts | 343° |
| 2026-04-23 09:45 | 34.89816 | 136.79065 | 2113 ft | 176 kts | 346° |
| 2026-04-23 09:45 | 34.91002 | 136.78595 | 2779 ft | 182 kts | 348° |
| 2026-04-23 09:45 | 34.92228 | 136.78113 | 3375 ft | 192 kts | 348° |
| 2026-04-23 09:45 | 34.93544 | 136.77593 | 3792 ft | 212 kts | 347° |
| 2026-04-23 09:46 | 34.95015 | 136.76999 | 4303 ft | 231 kts | 345° |
| 2026-04-23 09:46 | 34.96518 | 136.76083 | 4810 ft | 255 kts | 324° |
| 2026-04-23 09:46 | 34.97616 | 136.74371 | 5630 ft | 262 kts | 292° |
| 2026-04-23 09:46 | 34.98010 | 136.72226 | 6436 ft | 263 kts | 268° |
| 2026-04-23 09:47 | 34.97864 | 136.70062 | 7341 ft | 259 kts | 257° |
| 2026-04-23 09:47 | 34.97557 | 136.67911 | 8247 ft | 257 kts | 256° |
| 2026-04-23 09:47 | 34.97247 | 136.65794 | 9086 ft | 257 kts | 258° |
| 2026-04-23 09:47 | 34.96998 | 136.63664 | 9878 ft | 259 kts | 265° |
| 2026-04-23 09:48 | 34.97261 | 136.61479 | 10625 ft | 266 kts | 290° |
| 2026-04-23 09:48 | 34.98259 | 136.59590 | 11392 ft | 269 kts | 306° |
| 2026-04-23 09:48 | 34.99438 | 136.57861 | 12133 ft | 267 kts | 302° |
| 2026-04-23 09:48 | 35.00571 | 136.56100 | 12828 ft | 266 kts | 300° |
| 2026-04-23 09:49 | 35.01662 | 136.54288 | 13401 ft | 269 kts | 299° |
| 2026-04-23 09:49 | 35.02785 | 136.52420 | 13900 ft | 278 kts | 300° |
| 2026-04-23 09:49 | 35.03941 | 136.50505 | 14403 ft | 285 kts | 300° |
| 2026-04-23 09:49 | 35.05133 | 136.48535 | 14875 ft | 294 kts | 299° |
| 2026-04-23 09:50 | 35.06392 | 136.46487 | 15274 ft | 306 kts | 301° |
| 2026-04-23 09:50 | 35.07677 | 136.44395 | 15716 ft | 312 kts | 300° |
| 2026-04-23 09:50 | 35.08833 | 136.42207 | 16410 ft | 306 kts | 291° |
| 2026-04-23 09:50 | 35.09744 | 136.39894 | 16966 ft | 307 kts | 288° |
| 2026-04-23 09:51 | 35.10582 | 136.37457 | 17300 ft | 315 kts | 288° |
| 2026-04-23 09:51 | 35.11395 | 136.34987 | 18067 ft | 309 kts | 287° |
| 2026-04-23 09:51 | 35.12178 | 136.32610 | 18873 ft | 302 kts | 286° |
| 2026-04-23 09:51 | 35.12967 | 136.30234 | 19455 ft | 303 kts | 286° |
| 2026-04-23 09:52 | 35.13780 | 136.27802 | 19672 ft | 317 kts | 286° |
| 2026-04-23 09:52 | 35.14628 | 136.25267 | 19902 ft | 331 kts | 287° |
| 2026-04-23 09:52 | 35.15511 | 136.22632 | 20107 ft | 345 kts | 287° |
| 2026-04-23 09:52 | 35.16475 | 136.19871 | 20348 ft | 357 kts | 288° |
| 2026-04-23 09:53 | 35.17482 | 136.17075 | 20738 ft | 364 kts | 288° |
| 2026-04-23 09:53 | 35.18505 | 136.14267 | 21278 ft | 366 kts | 288° |
| 2026-04-23 09:53 | 35.19541 | 136.11415 | 21791 ft | 369 kts | 288° |
| 2026-04-23 09:53 | 35.20496 | 136.08519 | 22285 ft | 369 kts | 284° |
| 2026-04-23 09:54 | 35.21139 | 136.05508 | 22832 ft | 365 kts | 275° |
| 2026-04-23 09:54 | 35.21312 | 136.02454 | 23353 ft | 362 kts | 266° |
| 2026-04-23 09:54 | 35.21113 | 135.99370 | 23801 ft | 364 kts | 261° |
| 2026-04-23 09:54 | 35.20736 | 135.96320 | 24241 ft | 367 kts | 258° |
| 2026-04-23 09:55 | 35.20280 | 135.93237 | 24714 ft | 369 kts | 258° |
| 2026-04-23 09:55 | 35.19808 | 135.90183 | 25161 ft | 372 kts | 258° |
| 2026-04-23 09:55 | 35.19320 | 135.87039 | 25606 ft | 375 kts | 258° |
| 2026-04-23 09:55 | 35.18839 | 135.83925 | 26056 ft | 377 kts | 258° |
| 2026-04-23 09:56 | 35.18362 | 135.80791 | 26458 ft | 380 kts | 258° |
| 2026-04-23 09:56 | 35.17868 | 135.77615 | 26903 ft | 382 kts | 257° |
| 2026-04-23 09:56 | 35.17347 | 135.74448 | 27389 ft | 383 kts | 257° |
| 2026-04-23 09:56 | 35.16808 | 135.71252 | 27799 ft | 385 kts | 257° |
| 2026-04-23 09:57 | 35.16262 | 135.68059 | 28296 ft | 384 kts | 257° |
| 2026-04-23 09:57 | 35.15714 | 135.64874 | 28805 ft | 384 kts | 257° |
| 2026-04-23 09:57 | 35.15160 | 135.61664 | 29009 ft | 390 kts | 257° |
| 2026-04-23 09:57 | 35.14601 | 135.58400 | 29271 ft | 395 kts | 257° |
| 2026-04-23 09:58 | 35.14045 | 135.55124 | 29430 ft | 402 kts | 257° |
| 2026-04-23 09:58 | 35.13478 | 135.51785 | 29755 ft | 404 kts | 258° |
| 2026-04-23 09:58 | 35.12905 | 135.48416 | 29779 ft | 399 kts | 257° |
| 2026-04-23 09:58 | 35.12356 | 135.45171 | 29779 ft | 388 kts | 257° |
| 2026-04-23 09:59 | 35.11810 | 135.41971 | 29773 ft | 388 kts | 258° |
| 2026-04-23 09:59 | 35.10707 | 135.35532 | 29789 ft | 390 kts | 257° |
| 2026-04-23 10:00 | 35.09587 | 135.29028 | 29884 ft | 397 kts | 257° |
| 2026-04-23 10:00 | 35.09024 | 135.25734 | 30200 ft | 401 kts | 257° |
| 2026-04-23 10:00 | 35.08454 | 135.22411 | 30639 ft | 401 kts | 257° |
| 2026-04-23 10:00 | 35.07885 | 135.19110 | 31147 ft | 399 kts | 257° |
| 2026-04-23 10:01 | 35.07309 | 135.15784 | 31509 ft | 400 kts | 257° |
| 2026-04-23 10:01 | 35.06741 | 135.12494 | 31776 ft | 397 kts | 257° |
| 2026-04-23 10:01 | 35.06177 | 135.09235 | 31780 ft | 384 kts | 257° |
| 2026-04-23 10:02 | 35.05093 | 135.02994 | 31783 ft | 377 kts | 257° |
| 2026-04-23 10:02 | 35.03987 | 134.96652 | 31795 ft | 378 kts | 257° |
| 2026-04-23 10:03 | 35.02893 | 134.90395 | 31796 ft | 378 kts | 257° |
| 2026-04-23 10:03 | 35.01800 | 134.84168 | 31801 ft | 378 kts | 257° |
| 2026-04-23 10:04 | 35.00699 | 134.77914 | 31801 ft | 378 kts | 257° |
| 2026-04-23 10:04 | 34.99601 | 134.71707 | 31796 ft | 377 kts | 257° |
| 2026-04-23 10:05 | 34.98358 | 134.65471 | 31794 ft | 378 kts | 254° |
| 2026-04-23 10:05 | 34.96766 | 134.59393 | 31798 ft | 377 kts | 252° |
| 2026-04-23 10:06 | 34.95131 | 134.53343 | 31797 ft | 377 kts | 252° |
| 2026-04-23 10:06 | 34.93526 | 134.47305 | 31795 ft | 377 kts | 253° |
| 2026-04-23 10:07 | 34.91933 | 134.41243 | 31791 ft | 377 kts | 253° |
| 2026-04-23 10:07 | 34.90345 | 134.35175 | 31795 ft | 375 kts | 253° |
| 2026-04-23 10:08 | 34.88760 | 134.29125 | 31801 ft | 376 kts | 252° |
| 2026-04-23 10:08 | 34.87171 | 134.23076 | 31798 ft | 377 kts | 252° |
| 2026-04-23 10:09 | 34.84787 | 134.14029 | 31797 ft | 374 kts | 252° |
| 2026-04-23 10:09 | 34.83204 | 134.08025 | 31800 ft | 372 kts | 252° |
| 2026-04-23 10:10 | 34.81614 | 134.02011 | 31799 ft | 373 kts | 252° |
| 2026-04-23 10:10 | 34.80023 | 133.96001 | 31791 ft | 372 kts | 252° |
| 2026-04-23 10:11 | 34.78445 | 133.90060 | 31797 ft | 371 kts | 252° |
| 2026-04-23 10:11 | 34.76852 | 133.84084 | 31800 ft | 371 kts | 252° |
| 2026-04-23 10:12 | 34.75254 | 133.78102 | 31799 ft | 377 kts | 253° |
| 2026-04-23 10:12 | 34.73616 | 133.71973 | 31799 ft | 388 kts | 252° |
| 2026-04-23 10:13 | 34.71934 | 133.65703 | 31793 ft | 389 kts | 252° |
| 2026-04-23 10:13 | 34.70264 | 133.59483 | 31799 ft | 388 kts | 252° |
| 2026-04-23 10:14 | 34.68589 | 133.53284 | 31799 ft | 386 kts | 252° |
| 2026-04-23 10:14 | 34.66908 | 133.47061 | 31799 ft | 388 kts | 252° |
| 2026-04-23 10:15 | 34.65231 | 133.40854 | 31810 ft | 389 kts | 252° |
| 2026-04-23 10:15 | 34.63554 | 133.34650 | 31805 ft | 387 kts | 252° |
| 2026-04-23 10:16 | 34.61862 | 133.28413 | 31805 ft | 388 kts | 252° |
| 2026-04-23 10:16 | 34.60177 | 133.22224 | 31806 ft | 388 kts | 251° |
| 2026-04-23 10:17 | 34.58488 | 133.16052 | 31807 ft | 386 kts | 252° |
| 2026-04-23 10:17 | 34.56784 | 133.09831 | 31808 ft | 388 kts | 251° |
| 2026-04-23 10:18 | 34.55056 | 133.03523 | 31812 ft | 386 kts | 251° |
| 2026-04-23 10:18 | 34.53377 | 132.97415 | 31807 ft | 374 kts | 252° |
| 2026-04-23 10:19 | 34.51757 | 132.91531 | 31816 ft | 367 kts | 252° |
| 2026-04-23 10:19 | 34.50129 | 132.85631 | 31817 ft | 371 kts | 251° |
| 2026-04-23 10:20 | 34.48497 | 132.79736 | 31818 ft | 370 kts | 252° |
| 2026-04-23 10:20 | 34.46868 | 132.73856 | 31812 ft | 370 kts | 252° |
| 2026-04-23 10:21 | 34.45232 | 132.67960 | 31817 ft | 370 kts | 252° |
| 2026-04-23 10:21 | 34.43587 | 132.62042 | 31816 ft | 371 kts | 252° |
| 2026-04-23 10:22 | 34.41943 | 132.56146 | 31826 ft | 371 kts | 252° |
| 2026-04-23 10:22 | 34.40294 | 132.50241 | 31820 ft | 373 kts | 252° |
| 2026-04-23 10:23 | 34.38634 | 132.44315 | 31814 ft | 371 kts | 252° |
| 2026-04-23 10:23 | 34.36967 | 132.38376 | 31813 ft | 373 kts | 252° |
| 2026-04-23 10:24 | 34.35297 | 132.32433 | 31813 ft | 374 kts | 251° |
| 2026-04-23 10:24 | 34.33631 | 132.26512 | 31809 ft | 371 kts | 252° |
| 2026-04-23 10:25 | 34.31969 | 132.20621 | 31802 ft | 372 kts | 251° |
| 2026-04-23 10:25 | 34.30300 | 132.14725 | 31799 ft | 370 kts | 252° |
| 2026-04-23 10:26 | 34.28632 | 132.08847 | 31804 ft | 373 kts | 252° |
| 2026-04-23 10:26 | 34.26948 | 132.02918 | 31801 ft | 372 kts | 252° |
| 2026-04-23 10:27 | 34.25275 | 131.97043 | 31799 ft | 370 kts | 252° |
| 2026-04-23 10:27 | 34.23592 | 131.91148 | 31803 ft | 372 kts | 251° |
| 2026-04-23 10:28 | 34.21920 | 131.85301 | 31799 ft | 371 kts | 252° |
| 2026-04-23 10:28 | 34.20226 | 131.79396 | 31801 ft | 371 kts | 252° |
| 2026-04-23 10:29 | 34.18538 | 131.73515 | 31800 ft | 371 kts | 252° |
| 2026-04-23 10:29 | 34.16858 | 131.67674 | 31801 ft | 370 kts | 252° |
| 2026-04-23 10:30 | 34.15169 | 131.61818 | 31802 ft | 369 kts | 252° |
| 2026-04-23 10:30 | 34.13477 | 131.55966 | 31801 ft | 372 kts | 252° |
| 2026-04-23 10:31 | 34.11784 | 131.50124 | 31789 ft | 369 kts | 252° |
| 2026-04-23 10:31 | 34.10091 | 131.44286 | 31800 ft | 368 kts | 251° |
| 2026-04-23 10:32 | 34.08395 | 131.38457 | 31805 ft | 369 kts | 252° |
| 2026-04-23 10:32 | 34.06694 | 131.32613 | 31804 ft | 369 kts | 251° |
| 2026-04-23 10:33 | 34.04633 | 131.26975 | 31808 ft | 370 kts | 245° |
| 2026-04-23 10:33 | 34.02280 | 131.21472 | 31808 ft | 370 kts | 244° |
| 2026-04-23 10:34 | 33.99931 | 131.15962 | 31807 ft | 368 kts | 245° |
| 2026-04-23 10:34 | 33.97626 | 131.10481 | 31804 ft | 370 kts | 245° |
| 2026-04-23 10:35 | 33.95318 | 131.04947 | 31807 ft | 368 kts | 245° |
| 2026-04-23 10:35 | 33.93024 | 130.99437 | 31458 ft | 371 kts | 245° |
| 2026-04-23 10:36 | 33.91873 | 130.96677 | 31189 ft | 368 kts | 245° |
| 2026-04-23 10:36 | 33.90717 | 130.93904 | 30928 ft | 369 kts | 245° |
| 2026-04-23 10:36 | 33.89569 | 130.91156 | 30666 ft | 368 kts | 245° |
| 2026-04-23 10:36 | 33.88435 | 130.88443 | 30404 ft | 367 kts | 245° |
| 2026-04-23 10:37 | 33.87284 | 130.85692 | 30140 ft | 366 kts | 246° |
| 2026-04-23 10:37 | 33.86138 | 130.82953 | 29870 ft | 366 kts | 245° |
| 2026-04-23 10:37 | 33.84998 | 130.80229 | 29503 ft | 360 kts | 245° |
| 2026-04-23 10:37 | 33.83872 | 130.77544 | 28994 ft | 357 kts | 245° |
| 2026-04-23 10:38 | 33.82763 | 130.74899 | 28457 ft | 354 kts | 245° |
| 2026-04-23 10:38 | 33.81656 | 130.72258 | 27901 ft | 352 kts | 245° |
| 2026-04-23 10:38 | 33.80562 | 130.69652 | 27347 ft | 350 kts | 245° |
| 2026-04-23 10:38 | 33.79478 | 130.67075 | 26798 ft | 348 kts | 245° |
| 2026-04-23 10:39 | 33.78381 | 130.64468 | 26249 ft | 345 kts | 245° |
| 2026-04-23 10:39 | 33.77315 | 130.61938 | 25704 ft | 343 kts | 245° |
| 2026-04-23 10:39 | 33.76237 | 130.59380 | 25156 ft | 341 kts | 245° |
| 2026-04-23 10:39 | 33.75183 | 130.56880 | 24623 ft | 339 kts | 245° |
| 2026-04-23 10:40 | 33.74115 | 130.54350 | 24086 ft | 336 kts | 245° |
| 2026-04-23 10:40 | 33.73069 | 130.51872 | 23566 ft | 334 kts | 245° |
| 2026-04-23 10:40 | 33.72020 | 130.49390 | 23038 ft | 332 kts | 245° |
| 2026-04-23 10:40 | 33.70988 | 130.46947 | 22531 ft | 331 kts | 245° |
| 2026-04-23 10:41 | 33.69946 | 130.44485 | 22006 ft | 330 kts | 245° |
| 2026-04-23 10:41 | 33.68884 | 130.42075 | 21487 ft | 329 kts | 242° |
| 2026-04-23 10:41 | 33.67583 | 130.39824 | 20962 ft | 331 kts | 232° |
| 2026-04-23 10:41 | 33.65851 | 130.37981 | 20428 ft | 336 kts | 219° |
| 2026-04-23 10:42 | 33.63835 | 130.36539 | 19910 ft | 338 kts | 214° |
| 2026-04-23 10:42 | 33.61760 | 130.35245 | 19375 ft | 338 kts | 213° |
| 2026-04-23 10:42 | 33.59652 | 130.33981 | 18854 ft | 338 kts | 212° |
| 2026-04-23 10:42 | 33.57568 | 130.32738 | 18348 ft | 337 kts | 212° |
| 2026-04-23 10:43 | 33.55476 | 130.31483 | 17832 ft | 337 kts | 212° |
| 2026-04-23 10:43 | 33.53371 | 130.30211 | 17320 ft | 336 kts | 212° |
| 2026-04-23 10:43 | 33.51297 | 130.28947 | 16809 ft | 336 kts | 212° |
| 2026-04-23 10:43 | 33.49216 | 130.27673 | 16296 ft | 336 kts | 212° |
| 2026-04-23 10:44 | 33.47151 | 130.26407 | 15794 ft | 335 kts | 211° |
| 2026-04-23 10:44 | 33.45067 | 130.25130 | 15277 ft | 335 kts | 211° |
| 2026-04-23 10:44 | 33.43015 | 130.23871 | 14766 ft | 334 kts | 211° |
| 2026-04-23 10:44 | 33.40931 | 130.22594 | 14264 ft | 333 kts | 210° |
| 2026-04-23 10:45 | 33.38880 | 130.21343 | 13748 ft | 333 kts | 210° |
| 2026-04-23 10:45 | 33.36800 | 130.20073 | 13131 ft | 336 kts | 210° |
| 2026-04-23 10:45 | 33.34726 | 130.18810 | 12599 ft | 337 kts | 209° |
| 2026-04-23 10:45 | 33.32568 | 130.17760 | 12081 ft | 339 kts | 198° |
| 2026-04-23 10:46 | 33.30251 | 130.17288 | 11595 ft | 340 kts | 187° |
| 2026-04-23 10:46 | 33.27888 | 130.17157 | 11089 ft | 341 kts | 183° |
| 2026-04-23 10:46 | 33.25506 | 130.17122 | 10576 ft | 340 kts | 182° |
| 2026-04-23 10:46 | 33.23146 | 130.17076 | 10136 ft | 337 kts | 182° |
| 2026-04-23 10:47 | 33.20824 | 130.16991 | 9924 ft | 327 kts | 183° |
| 2026-04-23 10:47 | 33.18614 | 130.16878 | 9753 ft | 311 kts | 184° |
| 2026-04-23 10:47 | 33.16488 | 130.16751 | 9430 ft | 299 kts | 184° |
| 2026-04-23 10:47 | 33.14411 | 130.16615 | 9028 ft | 299 kts | 184° |
| 2026-04-23 10:48 | 33.12344 | 130.16478 | 8634 ft | 299 kts | 184° |
| 2026-04-23 10:48 | 33.10264 | 130.16341 | 8238 ft | 299 kts | 183° |
| 2026-04-23 10:48 | 33.08201 | 130.16206 | 7966 ft | 295 kts | 183° |
| 2026-04-23 10:48 | 33.06149 | 130.16075 | 7719 ft | 293 kts | 182° |
| 2026-04-23 10:49 | 33.04099 | 130.15944 | 7472 ft | 293 kts | 182° |
| 2026-04-23 10:49 | 33.02076 | 130.15816 | 7202 ft | 290 kts | 182° |
| 2026-04-23 10:49 | 33.00081 | 130.15688 | 6840 ft | 290 kts | 182° |
| 2026-04-23 10:49 | 32.98050 | 130.15559 | 6457 ft | 290 kts | 181° |
| 2026-04-23 10:50 | 32.96038 | 130.15431 | 6078 ft | 290 kts | 181° |
| 2026-04-23 10:50 | 32.94002 | 130.15302 | 5689 ft | 291 kts | 181° |
| 2026-04-23 10:50 | 32.91996 | 130.15175 | 5298 ft | 292 kts | 181° |
| 2026-04-23 10:50 | 32.89956 | 130.15042 | 5007 ft | 289 kts | 181° |
| 2026-04-23 10:51 | 32.87967 | 130.14916 | 4742 ft | 285 kts | 180° |
| 2026-04-23 10:51 | 32.85996 | 130.14793 | 4420 ft | 283 kts | 180° |
| 2026-04-23 10:51 | 32.84051 | 130.14671 | 4267 ft | 275 kts | 180° |
| 2026-04-23 10:51 | 32.82156 | 130.14545 | 4136 ft | 267 kts | 182° |
| 2026-04-23 10:52 | 32.80360 | 130.14171 | 4000 ft | 260 kts | 198° |
| 2026-04-23 10:52 | 32.78850 | 130.13048 | 3903 ft | 249 kts | 226° |
| 2026-04-23 10:52 | 32.77841 | 130.11470 | 3820 ft | 233 kts | 249° |
| 2026-04-23 10:52 | 32.77538 | 130.09695 | 3701 ft | 212 kts | 277° |
| 2026-04-23 10:53 | 32.77797 | 130.08054 | 3566 ft | 195 kts | 295° |
| 2026-04-23 10:53 | 32.78214 | 130.06557 | 3423 ft | 186 kts | 298° |
| 2026-04-23 10:53 | 32.78784 | 130.05228 | 3199 ft | 179 kts | 316° |
| 2026-04-23 10:53 | 32.79625 | 130.04179 | 2952 ft | 173 kts | 326° |
| 2026-04-23 10:54 | 32.80512 | 130.03214 | 2719 ft | 172 kts | 326° |
| 2026-04-23 10:54 | 32.81404 | 130.02269 | 2513 ft | 173 kts | 326° |
| 2026-04-23 10:54 | 32.82314 | 130.01326 | 2322 ft | 172 kts | 326° |
| 2026-04-23 10:54 | 32.83213 | 130.00389 | 2083 ft | 174 kts | 325° |
| 2026-04-23 10:55 | 32.84121 | 129.99445 | 1843 ft | 174 kts | 323° |
| 2026-04-23 10:55 | 32.84978 | 129.98492 | 1623 ft | 161 kts | 321° |
| 2026-04-23 10:55 | 32.85747 | 129.97643 | 1409 ft | 145 kts | 326° |
| 2026-04-23 10:55 | 32.86503 | 129.96880 | 1133 ft | 141 kts | 323° |
| 2026-04-23 10:56 | 32.87212 | 129.96117 | 956 ft | 136 kts | 323° |
| 2026-04-23 10:56 | 32.87931 | 129.95352 | 769 ft | 141 kts | 322° |
| 2026-04-23 10:56 | 32.88671 | 129.94568 | 582 ft | 141 kts | 323° |
| 2026-04-23 10:56 | 32.89387 | 129.93803 | 387 ft | 137 kts | 322° |
| 2026-04-23 10:57 | 32.90085 | 129.93056 | 213 ft | 134 kts | 323° |
| 2026-04-23 10:57 | 32.90796 | 129.92303 | 39 ft | 136 kts | 322° |
| 2026-04-23 10:57 | 32.91409 | 129.91655 | 6 ft | 87 kts | 320° |
| 2026-04-23 10:57 | 32.91776 | 129.91269 | 6 ft | 58 kts | 316° |
| 2026-04-23 10:58 | 32.91959 | 129.91101 | 7 ft | 17 kts | 20° |
| 2026-04-23 10:58 | 32.92016 | 129.91162 | 7 ft | 6 kts | 48° |
| 2026-04-23 10:58 | 32.92037 | 129.91194 | 7 ft | 3 kts | 59° |
| 2026-04-23 10:58 | 32.92044 | 129.91222 | 7 ft | 5 kts | 88° |
| 2026-04-23 10:59 | 32.91993 | 129.91303 | 7 ft | 16 kts | 137° |
| 2026-04-23 10:59 | 32.91895 | 129.91408 | 7 ft | 20 kts | 137° |
| 2026-04-23 10:59 | 32.91779 | 129.91530 | 7 ft | 24 kts | 139° |
| 2026-04-23 10:59 | 32.91644 | 129.91675 | 8 ft | 27 kts | 138° |
| 2026-04-23 11:00 | 32.91507 | 129.91821 | 9 ft | 25 kts | 138° |
| 2026-04-23 11:00 | 32.91433 | 129.91904 | 10 ft | 6 kts | 115° |
| 2026-04-23 11:00 | 32.91452 | 129.91950 | 11 ft | 3 kts | 48° |
| 2026-04-23 11:00 | 32.91460 | 129.91959 | 11 ft | 1 kts | 47° |
| 2026-04-23 11:01 | 32.91489 | 129.91997 | 12 ft | 9 kts | 49° |
| 2026-04-23 11:01 | 32.91518 | 129.92035 | 13 ft | 0 kts | 48° |
| 2026-04-23 11:01 | 32.91518 | 129.92036 | 13 ft | 0 kts | 47° |